Time;durP1;ratioP1;P1;durP2;ratioP2;P2;SDS_P1;SDS_P2;PMS_P1;PMS_P2;Temp;Humidity;BMP_temperature;BMP_pressure;BME280_temperature;BME280_humidity;BME280_pressure;Samples;Min_cycle;Max_cycle;Signal;HPM_P1;HPM_P2
2022/07/12 00:01:58;;;;;;;2.73;1.43;;;17.70;99.90;;;;;;5089231;28;20447;-46
2022/07/12 00:04:25;;;;;;;2.70;1.77;;;17.70;99.90;;;;;;5090386;28;20504;-44
2022/07/12 00:06:53;;;;;;;2.33;1.53;;;17.70;99.90;;;;;;5093413;28;20504;-48
2022/07/12 00:09:20;;;;;;;2.03;1.10;;;17.60;99.90;;;;;;5092967;28;20491;-46
2022/07/12 00:11:47;;;;;;;1.30;1.00;;;17.50;99.90;;;;;;5093193;28;20519;-45
2022/07/12 00:14:15;;;;;;;2.27;1.20;;;17.60;99.90;;;;;;5093065;28;20438;-48
2022/07/12 00:16:42;;;;;;;1.80;1.00;;;17.60;99.90;;;;;;5093033;28;20454;-45
2022/07/12 00:19:09;;;;;;;2.93;1.33;;;17.40;99.90;;;;;;5092503;28;20974;-45
2022/07/12 00:21:36;;;;;;;2.03;1.10;;;17.40;99.90;;;;;;5093067;28;20454;-47
2022/07/12 00:24:04;;;;;;;4.40;1.70;;;17.40;99.90;;;;;;5092996;28;20444;-46
2022/07/12 00:26:31;;;;;;;2.27;1.30;;;17.40;99.90;;;;;;5092890;28;20944;-44
2022/07/12 00:28:58;;;;;;;1.83;1.10;;;17.40;99.90;;;;;;5092678;28;20500;-46
2022/07/12 00:31:25;;;;;;;1.20;0.90;;;17.30;99.90;;;;;;5092663;28;20983;-45
2022/07/12 00:33:53;;;;;;;2.07;1.27;;;17.30;99.90;;;;;;5093149;28;20455;-46
2022/07/12 00:36:20;;;;;;;1.80;1.20;;;17.20;99.90;;;;;;5092888;28;20539;-46
2022/07/12 00:38:48;;;;;;;1.60;1.30;;;17.00;99.90;;;;;;5092310;28;20479;-48
2022/07/12 00:41:16;;;;;;;4.10;1.50;;;17.00;99.90;;;;;;5092567;28;20455;-44
2022/07/12 00:43:43;;;;;;;1.63;1.20;;;16.80;99.90;;;;;;5092725;28;20956;-45
2022/07/12 00:46:11;;;;;;;3.00;1.37;;;16.80;99.90;;;;;;5092692;28;20481;-48
2022/07/12 00:48:38;;;;;;;1.80;1.20;;;16.70;99.90;;;;;;5092327;28;20439;-48
2022/07/12 00:51:05;;;;;;;2.20;1.20;;;16.60;99.90;;;;;;5091987;28;20471;-44
2022/07/12 00:53:33;;;;;;;2.07;1.20;;;16.70;99.90;;;;;;5092367;28;20452;-46
2022/07/12 00:56:00;;;;;;;3.33;1.50;;;16.70;99.90;;;;;;5092340;28;20450;-45
2022/07/12 00:58:29;;;;;;;1.70;1.23;;;16.70;99.90;;;;;;5092319;28;20463;-45
2022/07/12 01:00:57;;;;;;;1.67;1.30;;;16.80;99.90;;;;;;5091802;28;20471;-45
2022/07/12 01:03:25;;;;;;;4.13;1.30;;;16.70;99.90;;;;;;5092245;28;20512;-45
2022/07/12 01:05:52;;;;;;;1.60;1.17;;;16.80;99.90;;;;;;5092230;28;20451;-45
2022/07/12 01:08:20;;;;;;;1.80;1.23;;;16.60;99.90;;;;;;5092115;28;20505;-44
2022/07/12 01:10:49;;;;;;;2.30;1.40;;;16.60;99.90;;;;;;5091716;28;20525;-46
2022/07/12 01:13:17;;;;;;;2.70;1.20;;;16.60;99.90;;;;;;5092062;28;20535;-45
2022/07/12 01:15:48;;;;;;;1.93;1.40;;;16.70;99.90;;;;;;5091755;28;20508;-46
2022/07/12 01:18:16;;;;;;;2.47;1.43;;;16.70;99.90;;;;;;5092215;28;20448;-44
2022/07/12 01:20:43;;;;;;;1.97;1.30;;;16.60;99.90;;;;;;5091988;28;20455;-46
2022/07/12 01:23:13;;;;;;;2.30;1.63;;;16.40;99.90;;;;;;5091916;28;20455;-44
2022/07/12 01:25:40;;;;;;;2.17;1.40;;;16.30;99.90;;;;;;5091741;28;20991;-44
2022/07/12 01:28:07;;;;;;;1.40;1.10;;;16.20;99.90;;;;;;5091783;28;20497;-46
2022/07/12 01:30:34;;;;;;;2.27;1.53;;;16.20;99.90;;;;;;5091692;28;20524;-44
2022/07/12 01:33:01;;;;;;;2.30;1.67;;;16.20;99.90;;;;;;5091763;28;20496;-44
2022/07/12 01:35:30;;;;;;;1.73;1.40;;;16.40;99.90;;;;;;5091647;28;20469;-45
2022/07/12 01:37:57;;;;;;;2.03;1.30;;;16.30;99.90;;;;;;5091544;28;20443;-44
2022/07/12 01:40:25;;;;;;;1.63;1.33;;;16.40;99.90;;;;;;5091276;28;20563;-44
2022/07/12 01:42:53;;;;;;;5.90;1.63;;;16.50;99.90;;;;;;5091446;28;20451;-44
2022/07/12 01:45:20;;;;;;;1.83;1.20;;;16.40;99.90;;;;;;5091891;28;20448;-45
2022/07/12 01:47:48;;;;;;;2.03;1.30;;;16.30;99.90;;;;;;5091624;28;20443;-44
2022/07/12 01:50:16;;;;;;;3.87;1.43;;;16.30;99.90;;;;;;5090754;28;20556;-44
2022/07/12 01:52:43;;;;;;;1.97;1.50;;;16.30;99.90;;;;;;5091762;28;20508;-44
2022/07/12 01:55:11;;;;;;;2.63;1.27;;;16.30;99.90;;;;;;5091259;28;20447;-47
2022/07/12 01:57:42;;;;;;;1.90;1.40;;;16.20;99.90;;;;;;5091137;28;20798;-47
2022/07/12 02:00:11;;;;;;;1.60;1.40;;;16.30;99.90;;;;;;5090616;28;20528;-45
2022/07/12 02:02:39;;;;;;;1.90;1.40;;;16.30;99.90;;;;;;5091067;28;20455;-44
2022/07/12 02:05:06;;;;;;;3.87;1.63;;;16.40;99.90;;;;;;5091008;28;21025;-44
2022/07/12 02:07:33;;;;;;;2.13;1.53;;;16.40;99.90;;;;;;5091033;28;20443;-45
2022/07/12 02:10:00;;;;;;;1.60;1.37;;;16.40;99.90;;;;;;5090502;28;21033;-45
2022/07/12 02:12:28;;;;;;;1.40;1.23;;;16.10;99.90;;;;;;5090890;28;20508;-45
2022/07/12 02:14:56;;;;;;;1.80;1.30;;;16.00;99.90;;;;;;5090784;28;20431;-44
2022/07/12 02:17:23;;;;;;;1.40;1.20;;;16.00;99.90;;;;;;5090710;28;20436;-48
2022/07/12 02:19:50;;;;;;;1.40;1.10;;;16.10;99.90;;;;;;5090369;28;20467;-44
2022/07/12 02:22:18;;;;;;;1.70;1.53;;;16.10;99.90;;;;;;5091131;28;20980;-45
2022/07/12 02:24:45;;;;;;;1.40;1.10;;;16.10;99.90;;;;;;5090946;28;20516;-45
2022/07/12 02:27:12;;;;;;;1.70;1.10;;;16.20;99.90;;;;;;5090119;28;20448;-44
2022/07/12 02:29:41;;;;;;;2.07;1.20;;;16.30;99.90;;;;;;5090605;28;20460;-45
2022/07/12 02:32:09;;;;;;;3.03;1.33;;;16.30;99.90;;;;;;5090339;28;20502;-46
2022/07/12 02:34:36;;;;;;;1.83;1.57;;;16.30;99.90;;;;;;5090352;28;20497;-49
2022/07/12 02:37:04;;;;;;;1.80;1.47;;;16.10;99.90;;;;;;5090524;28;20443;-45
2022/07/12 02:39:31;;;;;;;2.40;1.43;;;16.10;99.90;;;;;;5090149;28;20463;-46
2022/07/12 02:41:58;;;;;;;2.33;1.50;;;16.10;99.90;;;;;;5090412;28;20530;-45
2022/07/12 02:44:25;;;;;;;3.07;1.23;;;16.20;99.90;;;;;;5090446;28;20471;-44
2022/07/12 02:46:52;;;;;;;2.17;1.30;;;16.20;99.90;;;;;;5090215;28;20438;-47
2022/07/12 02:49:20;;;;;;;2.23;1.70;;;16.20;99.90;;;;;;5089786;28;20471;-45
2022/07/12 02:51:47;;;;;;;1.90;1.47;;;16.10;99.90;;;;;;5090283;28;20512;-45
2022/07/12 02:54:14;;;;;;;5.40;1.60;;;16.10;99.90;;;;;;5090251;28;20482;-45
2022/07/12 02:56:41;;;;;;;1.63;1.27;;;16.20;99.90;;;;;;5090115;28;20838;-46
2022/07/12 02:59:08;;;;;;;1.80;1.30;;;16.10;99.90;;;;;;5090266;28;20470;-45
2022/07/12 03:01:35;;;;;;;2.20;1.40;;;16.00;99.90;;;;;;5089999;28;20471;-45
2022/07/12 03:04:02;;;;;;;2.00;1.37;;;15.70;99.90;;;;;;5090237;28;20793;-48
2022/07/12 03:06:31;;;;;;;2.50;1.50;;;15.50;99.90;;;;;;5090029;28;20451;-47
2022/07/12 03:08:58;;;;;;;1.47;1.10;;;15.50;99.90;;;;;;5089677;28;20447;-48
2022/07/12 03:11:25;;;;;;;2.70;1.17;;;15.70;99.90;;;;;;5090149;28;20471;-50
2022/07/12 03:13:52;;;;;;;1.40;1.20;;;15.80;99.90;;;;;;5090050;28;20497;-47
2022/07/12 03:16:19;;;;;;;1.50;1.33;;;15.70;99.90;;;;;;5089945;28;20436;-46
2022/07/12 03:18:46;;;;;;;2.23;1.20;;;15.80;99.90;;;;;;5089398;28;20424;-49
2022/07/12 03:21:13;;;;;;;1.93;1.23;;;15.70;99.90;;;;;;5089920;28;20475;-46
2022/07/12 03:23:43;;;;;;;1.77;1.30;;;15.80;99.90;;;;;;5089766;28;20432;-48
2022/07/12 03:26:10;;;;;;;1.53;1.13;;;15.60;99.90;;;;;;5089663;28;20431;-49
2022/07/12 03:28:37;;;;;;;1.70;1.33;;;15.60;99.90;;;;;;5089893;28;20509;-47
2022/07/12 03:31:04;;;;;;;2.80;2.00;;;15.60;99.90;;;;;;5089649;28;20471;-48
2022/07/12 03:33:31;;;;;;;2.07;1.17;;;15.20;99.90;;;;;;5089887;28;20492;-46
2022/07/12 03:35:58;;;;;;;4.37;2.43;;;15.10;99.90;;;;;;5089838;28;20440;-48
2022/07/12 03:38:25;;;;;;;2.37;1.50;;;15.10;99.90;;;;;;5089741;28;20450;-47
2022/07/12 03:40:53;;;;;;;3.17;1.60;;;15.10;99.90;;;;;;5092765;28;20493;-48
2022/07/12 03:43:20;;;;;;;4.93;1.73;;;14.90;99.90;;;;;;5093915;28;20455;-47
2022/07/12 03:45:47;;;;;;;2.10;1.50;;;15.00;99.90;;;;;;5093874;28;20443;-49
2022/07/12 03:48:14;;;;;;;2.67;1.83;;;14.90;99.90;;;;;;5093809;28;20443;-47
2022/07/12 03:50:41;;;;;;;4.23;1.40;;;15.10;99.90;;;;;;5150491;22;20479;-48
2022/07/12 03:53:08;;;;;;;2.17;1.43;;;15.30;99.90;;;;;;5093758;28;21005;-47
2022/07/12 03:55:35;;;;;;;2.50;1.50;;;15.40;99.90;;;;;;5093627;28;20512;-48
2022/07/12 03:58:03;;;;;;;1.87;1.37;;;15.40;99.90;;;;;;5093422;28;20439;-48
2022/07/12 04:00:30;;;;;;;2.33;1.27;;;15.50;99.90;;;;;;5092921;28;20450;-47
2022/07/12 04:02:57;;;;;;;3.60;1.57;;;15.60;99.90;;;;;;5093501;28;20471;-48
2022/07/12 04:05:26;;;;;;;2.47;1.47;;;15.60;99.90;;;;;;5093578;28;20526;-48
2022/07/12 04:07:54;;;;;;;2.30;1.50;;;15.70;99.90;;;;;;5093839;28;20440;-47
2022/07/12 04:10:21;;;;;;;2.30;1.40;;;15.70;99.90;;;;;;5093299;28;20451;-47
2022/07/12 04:12:48;;;;;;;1.30;1.13;;;15.70;99.90;;;;;;5093099;28;20498;-47
2022/07/12 04:15:17;;;;;;;1.83;1.40;;;15.70;99.90;;;;;;5093173;28;20794;-48
2022/07/12 04:17:44;;;;;;;2.17;1.37;;;15.70;99.90;;;;;;5092887;28;20858;-49
2022/07/12 04:20:11;;;;;;;3.03;1.13;;;15.60;99.90;;;;;;5092595;28;20463;-47
2022/07/12 04:22:39;;;;;;;2.57;2.37;;;15.50;99.90;;;;;;5092940;28;20440;-47
2022/07/12 04:25:07;;;;;;;1.80;1.47;;;15.60;99.90;;;;;;5093058;28;20467;-46
2022/07/12 04:27:35;;;;;;;3.10;1.87;;;15.70;99.90;;;;;;5092876;28;20454;-46
2022/07/12 04:30:02;;;;;;;2.30;1.50;;;15.60;99.90;;;;;;5092604;28;20463;-52
2022/07/12 04:32:30;;;;;;;1.40;1.30;;;15.70;99.90;;;;;;5092737;28;20463;-47
2022/07/12 04:34:57;;;;;;;2.67;2.00;;;15.70;99.90;;;;;;5093329;28;20451;-46
2022/07/12 04:37:24;;;;;;;1.60;1.40;;;15.70;99.90;;;;;;5092823;28;20452;-47
2022/07/12 04:39:51;;;;;;;2.07;1.73;;;15.80;99.90;;;;;;5092619;28;20443;-47
2022/07/12 04:42:18;;;;;;;2.07;1.53;;;15.80;99.90;;;;;;5092666;28;20496;-46
2022/07/12 04:44:45;;;;;;;2.13;1.50;;;15.80;99.90;;;;;;5092524;28;20823;-48
2022/07/12 04:47:12;;;;;;;2.30;1.43;;;15.90;99.90;;;;;;5093120;28;20497;-46
2022/07/12 04:49:40;;;;;;;7.90;2.07;;;15.90;99.90;;;;;;5091992;28;20474;-52
2022/07/12 04:52:08;;;;;;;2.27;1.30;;;15.70;99.90;;;;;;5092046;28;20471;-49
2022/07/12 04:54:35;;;;;;;1.90;1.70;;;15.70;99.90;;;;;;5092504;28;20504;-47
2022/07/12 04:57:02;;;;;;;2.30;1.40;;;15.50;99.90;;;;;;5092733;28;20466;-49
2022/07/12 04:59:29;;;;;;;1.73;1.10;;;15.30;99.90;;;;;;5092189;28;20469;-46
2022/07/12 05:01:56;;;;;;;2.20;1.40;;;15.50;99.90;;;;;;5092007;28;20490;-52
2022/07/12 05:04:23;;;;;;;1.77;1.30;;;15.40;99.90;;;;;;5092270;28;20451;-46
2022/07/12 05:06:52;;;;;;;1.97;1.37;;;15.60;99.90;;;;;;5092286;28;20439;-47
2022/07/12 05:09:19;;;;;;;2.37;1.80;;;15.80;99.90;;;;;;5092040;28;20438;-46
2022/07/12 05:11:46;;;;;;;2.20;1.50;;;15.80;99.90;;;;;;5091986;28;20464;-47
2022/07/12 05:14:13;;;;;;;2.07;1.87;;;15.80;99.90;;;;;;5092103;28;20956;-47
2022/07/12 05:16:40;;;;;;;3.03;1.50;;;15.90;99.90;;;;;;5091950;28;20512;-46
2022/07/12 05:19:07;;;;;;;1.60;1.23;;;15.90;99.90;;;;;;5091492;28;20436;-48
2022/07/12 05:21:34;;;;;;;1.43;1.20;;;15.90;99.90;;;;;;5091850;28;20516;-47
2022/07/12 05:24:03;;;;;;;2.10;1.70;;;15.80;99.90;;;;;;5091938;28;20447;-48
2022/07/12 05:26:30;;;;;;;2.13;1.50;;;15.80;99.90;;;;;;5091799;28;20456;-47
2022/07/12 05:28:57;;;;;;;2.33;1.70;;;15.90;99.90;;;;;;5091468;28;20428;-51
2022/07/12 05:31:24;;;;;;;1.70;1.43;;;15.70;99.90;;;;;;5091644;28;20532;-46
2022/07/12 05:33:51;;;;;;;2.97;1.60;;;15.70;99.90;;;;;;5091497;28;20539;-49
2022/07/12 05:36:18;;;;;;;2.37;1.50;;;15.70;99.90;;;;;;5091638;28;20440;-47
2022/07/12 05:38:46;;;;;;;1.97;1.43;;;15.80;99.90;;;;;;5091319;28;20443;-54
2022/07/12 05:41:14;;;;;;;1.50;1.20;;;15.80;99.90;;;;;;5091377;28;20455;-46
2022/07/12 05:43:41;;;;;;;3.30;1.37;;;15.80;99.90;;;;;;5091735;28;20447;-46
2022/07/12 05:46:09;;;;;;;2.17;1.43;;;15.80;99.90;;;;;;5091452;28;20447;-47
2022/07/12 05:48:36;;;;;;;2.13;1.43;;;15.90;99.90;;;;;;5091302;28;20428;-51
2022/07/12 05:53:44;;;;;;;2.20;1.70;;;15.90;99.90;;;;;;5090847;28;20468;-47
2022/07/12 05:56:12;;;;;;;2.23;1.50;;;15.90;99.90;;;;;;5091294;28;20444;-48
2022/07/12 05:58:40;;;;;;;2.57;1.80;;;15.80;99.90;;;;;;5091037;28;20434;-46
2022/07/12 06:01:07;;;;;;;1.63;1.50;;;15.90;99.90;;;;;;5090690;28;20521;-51
2022/07/12 06:03:34;;;;;;;2.93;1.60;;;16.00;99.90;;;;;;5090434;28;21021;-48
2022/07/12 06:06:01;;;;;;;2.10;1.70;;;16.00;99.90;;;;;;5091144;28;20545;-46
2022/07/12 06:08:28;;;;;;;2.33;1.70;;;16.10;99.90;;;;;;5090917;28;20839;-46
2022/07/12 06:10:55;;;;;;;1.83;1.40;;;16.20;99.90;;;;;;5090715;28;20960;-47
2022/07/12 06:13:22;;;;;;;3.27;2.07;;;16.40;99.90;;;;;;5090834;28;20491;-47
2022/07/12 06:15:51;;;;;;;1.93;1.30;;;17.10;99.90;;;;;;5090895;28;20504;-47
2022/07/12 06:18:18;;;;;;;2.30;1.60;;;18.20;99.90;;;;;;5090613;28;20448;-49
2022/07/12 06:20:45;;;;;;;2.70;1.47;;;19.60;99.90;;;;;;5090530;28;20463;-49
2022/07/12 06:23:12;;;;;;;1.87;1.20;;;20.50;99.90;;;;;;5090740;28;20440;-47
2022/07/12 06:25:40;;;;;;;2.27;0.97;;;21.00;99.90;;;;;;5090637;28;20432;-47
2022/07/12 06:28:07;;;;;;;1.87;1.20;;;21.20;99.90;;;;;;5090615;28;20929;-47
2022/07/12 06:30:34;;;;;;;2.93;1.30;;;21.20;99.90;;;;;;5090241;28;20862;-47
2022/07/12 06:33:02;;;;;;;2.33;1.07;;;21.10;99.90;;;;;;5090357;28;20540;-52
2022/07/12 06:35:29;;;;;;;1.70;1.10;;;21.00;99.90;;;;;;5090529;28;20440;-49
2022/07/12 06:37:57;;;;;;;1.80;1.17;;;20.80;99.90;;;;;;5090582;28;20516;-48
2022/07/12 06:40:24;;;;;;;1.57;1.23;;;20.70;99.90;;;;;;5090568;28;20509;-49
2022/07/12 06:42:51;;;;;;;1.80;1.50;;;20.50;99.90;;;;;;5090548;28;20447;-47
2022/07/12 06:45:18;;;;;;;2.23;1.50;;;20.40;99.90;;;;;;5090382;28;20439;-51
2022/07/12 06:47:45;;;;;;;2.43;1.60;;;20.20;99.90;;;;;;5090383;28;20450;-49
2022/07/12 06:50:14;;;;;;;2.00;1.63;;;20.00;99.90;;;;;;5089859;28;20525;-48
2022/07/12 06:52:41;;;;;;;1.70;1.17;;;19.80;99.90;;;;;;5090229;28;20513;-47
2022/07/12 06:55:09;;;;;;;1.97;1.47;;;19.40;99.90;;;;;;5090339;28;20920;-47
2022/07/12 06:57:37;;;;;;;2.47;1.43;;;19.10;99.90;;;;;;5090124;28;20944;-48
2022/07/12 07:00:05;;;;;;;1.50;1.07;;;18.90;99.90;;;;;;5089501;28;20452;-47
2022/07/12 07:02:32;;;;;;;2.20;1.60;;;18.90;99.90;;;;;;5089958;28;20432;-47
2022/07/12 07:04:59;;;;;;;2.17;1.50;;;18.80;99.90;;;;;;5090416;28;20444;-50
2022/07/12 07:07:27;;;;;;;2.30;1.60;;;18.80;99.90;;;;;;5090208;28;20444;-48
2022/07/12 07:09:54;;;;;;;1.90;1.43;;;18.70;99.90;;;;;;5089760;28;21036;-49
2022/07/12 07:12:21;;;;;;;2.13;1.80;;;18.60;99.90;;;;;;5089921;28;20497;-53
2022/07/12 07:14:49;;;;;;;2.70;1.77;;;18.50;99.90;;;;;;5089737;28;20450;-48
2022/07/12 07:17:17;;;;;;;2.27;2.00;;;18.50;99.90;;;;;;5089679;28;20956;-47
2022/07/12 07:19:44;;;;;;;1.93;1.57;;;18.60;99.90;;;;;;5089495;28;20478;-52
2022/07/12 07:22:11;;;;;;;1.80;1.33;;;18.50;99.90;;;;;;5090446;28;20810;-47
2022/07/12 07:24:40;;;;;;;1.87;1.50;;;18.50;99.90;;;;;;5089978;28;20435;-49
2022/07/12 07:27:07;;;;;;;1.67;1.40;;;18.70;99.90;;;;;;5090115;28;20448;-47
2022/07/12 07:32:19;;;;;;;1.60;1.40;;;19.10;99.90;;;;;;5089710;28;20517;-51
2022/07/12 07:34:46;;;;;;;1.63;1.20;;;19.40;99.90;;;;;;5089714;28;20444;-49
2022/07/12 07:37:13;;;;;;;1.90;1.40;;;19.90;99.90;;;;;;5089867;28;20474;-47
2022/07/12 07:39:42;;;;;;;1.70;1.47;;;20.10;99.90;;;;;;5089311;28;20428;-47
2022/07/12 07:42:10;;;;;;;7.30;1.80;;;20.30;99.90;;;;;;5089958;28;20442;-50
2022/07/12 07:44:37;;;;;;;1.97;1.50;;;20.50;99.90;;;;;;5089769;28;20439;-47
2022/07/12 07:47:04;;;;;;;2.27;1.53;;;20.40;99.90;;;;;;5089688;28;20466;-52
2022/07/12 07:49:31;;;;;;;1.53;1.43;;;20.40;99.90;;;;;;5089463;28;20451;-47
2022/07/12 07:51:58;;;;;;;1.97;1.70;;;20.40;99.90;;;;;;5089890;28;20812;-48
2022/07/12 07:54:26;;;;;;;3.87;1.87;;;20.40;99.90;;;;;;5089650;28;20830;-48
2022/07/12 07:56:54;;;;;;;1.77;1.40;;;20.80;99.90;;;;;;5089882;28;20904;-50
2022/07/12 07:59:21;;;;;;;1.70;1.30;;;21.20;99.90;;;;;;5089430;28;20479;-50
2022/07/12 08:01:52;;;;;;;3.60;2.13;;;21.40;99.90;;;;;;5089048;28;20503;-47
2022/07/12 08:04:20;;;;;;;13.25;3.58;;;21.50;99.90;;;;;;5089107;28;20435;-52
2022/07/12 08:06:48;;;;;;;2.13;1.40;;;21.80;99.90;;;;;;5089546;28;20202;-53
2022/07/12 08:09:15;;;;;;;3.53;2.00;;;21.70;99.90;;;;;;5089197;28;20468;-49
2022/07/12 08:11:43;;;;;;;5.20;1.70;;;22.00;99.90;;;;;;5089710;28;20517;-47
2022/07/12 08:14:12;;;;;;;3.27;1.93;;;21.20;99.90;;;;;;5089153;28;20540;-47
2022/07/12 08:16:39;;;;;;;17.53;3.03;;;21.60;99.90;;;;;;5089348;28;20505;-47
2022/07/12 08:19:06;;;;;;;4.80;1.60;;;21.80;99.90;;;;;;5089019;28;21100;-51
2022/07/12 08:21:33;;;;;;;2.00;1.50;;;22.00;99.90;;;;;;5089270;28;20542;-49
2022/07/12 08:24:00;;;;;;;6.10;1.97;;;22.20;99.90;;;;;;5089416;28;20496;-48
2022/07/12 08:26:27;;;;;;;5.53;1.80;;;22.30;99.90;;;;;;5091772;28;20936;-47
2022/07/12 08:28:54;;;;;;;1.90;1.50;;;22.20;99.90;;;;;;5092794;28;20439;-51
2022/07/12 08:31:23;;;;;;;2.90;1.70;;;22.50;99.90;;;;;;5092873;28;20471;-49
2022/07/12 08:33:50;;;;;;;1.53;1.23;;;22.50;99.90;;;;;;5092608;28;21062;-47
2022/07/12 08:36:17;;;;;;;1.90;1.10;;;22.50;99.90;;;;;;5092872;28;20443;-49
2022/07/12 08:38:44;;;;;;;2.73;1.30;;;22.60;99.90;;;;;;5092565;28;20881;-47
2022/07/12 08:41:14;;;;;;;2.50;1.40;;;22.80;99.90;;;;;;5092579;28;20543;-48
2022/07/12 08:43:41;;;;;;;2.00;1.00;;;22.60;99.90;;;;;;5092575;28;20531;-46
2022/07/12 08:46:10;;;;;;;3.07;1.50;;;22.50;99.90;;;;;;5092629;28;20440;-50
2022/07/12 08:48:39;;;;;;;3.07;1.27;;;22.50;99.90;;;;;;5092569;28;20452;-47
2022/07/12 08:51:08;;;;;;;1.67;1.13;;;22.30;99.90;;;;;;5092368;28;20471;-47
2022/07/12 08:53:35;;;;;;;1.60;1.27;;;22.20;99.90;;;;;;5092292;28;20471;-47
2022/07/12 08:56:03;;;;;;;3.93;1.40;;;22.30;99.90;;;;;;5092309;28;20454;-47
2022/07/12 08:58:30;;;;;;;1.60;0.93;;;22.40;99.90;;;;;;5092375;28;20946;-50
2022/07/12 09:00:57;;;;;;;2.23;1.27;;;21.70;99.90;;;;;;5091797;28;20459;-48
2022/07/12 09:03:24;;;;;;;5.73;1.67;;;22.00;99.90;;;;;;5092294;28;20440;-52
2022/07/12 09:05:55;;;;;;;2.53;1.20;;;22.10;99.90;;;;;;5092206;28;20513;-47
2022/07/12 09:08:32;;;;;;;2.37;1.70;;;22.20;99.90;;;;;;5092155;28;20448;-48
2022/07/12 09:11:01;;;;;;;2.90;1.33;;;22.30;99.90;;;;;;5091835;28;20466;-48
2022/07/12 09:13:50;;;;;;;2.80;1.50;;;22.30;99.90;;;;;;5092055;28;20863;-49
2022/07/12 09:16:17;;;;;;;1.80;1.40;;;22.50;99.90;;;;;;5092040;28;20935;-47
2022/07/12 09:18:45;;;;;;;1.80;1.20;;;22.60;99.90;;;;;;5091601;28;20435;-49
2022/07/12 09:21:22;;;;;;;1.80;1.37;;;22.60;99.90;;;;;;5092132;28;20864;-48
2022/07/12 09:23:53;;;;;;;1.70;1.30;;;22.70;99.90;;;;;;5092053;28;20975;-47
2022/07/12 09:26:21;;;;;;;2.03;1.30;;;22.70;99.90;;;;;;5091659;28;20450;-50
2022/07/12 09:28:52;;;;;;;3.67;1.40;;;22.60;99.90;;;;;;5091515;28;20464;-50
2022/07/12 09:31:19;;;;;;;2.70;1.33;;;22.50;99.90;;;;;;5091699;28;20984;-49
2022/07/12 09:36:57;;;;;;;2.63;1.30;;;22.60;99.90;;;;;;5091445;28;20411;-47
2022/07/12 09:39:25;;;;;;;2.43;1.93;;;22.50;99.90;;;;;;5091401;28;20526;-47
2022/07/12 09:41:54;;;;;;;1.70;1.30;;;22.70;99.90;;;;;;5091491;28;20867;-47
2022/07/12 09:44:22;;;;;;;1.80;1.50;;;22.80;99.90;;;;;;5091581;28;20466;-49
2022/07/12 09:46:49;;;;;;;2.30;2.10;;;22.80;99.90;;;;;;5091520;28;20960;-54
2022/07/12 09:49:20;;;;;;;6.10;1.80;;;23.00;99.90;;;;;;5090882;28;20450;-47
2022/07/12 09:51:48;;;;;;;2.50;1.20;;;23.00;99.90;;;;;;5148485;22;20501;-45
2022/07/12 09:54:23;;;;;;;1.70;1.20;;;23.00;99.90;;;;;;5091110;28;20570;-46
2022/07/12 09:56:54;;;;;;;3.60;1.20;;;23.30;99.90;;;;;;5091372;28;20550;-47
2022/07/12 09:59:24;;;;;;;1.40;1.10;;;23.30;99.90;;;;;;5091098;28;20542;-46
2022/07/12 10:01:55;;;;;;;1.63;1.17;;;23.50;99.90;;;;;;5090563;28;20529;-46
2022/07/12 10:04:23;;;;;;;1.80;1.10;;;23.50;99.90;;;;;;5090972;28;20424;-47
2022/07/12 10:06:51;;;;;;;3.30;0.90;;;23.50;99.90;;;;;;5091000;28;20439;-46
2022/07/12 10:09:19;;;;;;;1.70;1.33;;;23.50;97.50;;;;;;5090983;28;20716;-45
2022/07/12 10:11:47;;;;;;;1.90;1.00;;;23.40;99.10;;;;;;5090923;28;20506;-48
2022/07/12 10:14:15;;;;;;;2.17;1.23;;;23.30;98.00;;;;;;5090662;28;20460;-45
2022/07/12 10:16:43;;;;;;;2.60;1.20;;;23.40;99.00;;;;;;5090522;28;20443;-45
2022/07/12 10:19:24;;;;;;;1.20;0.80;;;23.20;95.60;;;;;;5090438;28;20447;-46
2022/07/12 10:21:52;;;;;;;1.30;1.00;;;22.80;97.20;;;;;;5090655;28;20448;-47
2022/07/12 10:24:48;;;;;;;2.33;0.90;;;22.60;96.00;;;;;;5090689;28;20440;-49
2022/07/12 10:27:34;;;;;;;1.20;0.77;;;22.80;99.00;;;;;;5090980;28;20709;-46
2022/07/12 10:30:20;;;;;;;1.83;1.00;;;23.00;99.60;;;;;;5090408;28;20485;-46
2022/07/12 10:32:49;;;;;;;5.40;0.90;;;22.60;96.20;;;;;;5090232;28;20442;-46
2022/07/12 10:35:21;;;;;;;4.40;1.40;;;22.90;97.90;;;;;;5090764;28;20542;-45
2022/07/12 10:38:17;;;;;;;1.70;1.03;;;22.80;95.40;;;;;;5090336;28;20501;-49
2022/07/12 10:40:47;;;;;;;2.53;1.00;;;22.80;96.80;;;;;;5089997;28;20543;-48
2022/07/12 10:46:23;;;;;;;1.40;0.90;;;23.10;95.90;;;;;;5090335;28;20418;-46
2022/07/12 10:48:50;;;;;;;1.60;1.03;;;23.10;97.70;;;;;;5089493;28;20423;-46
2022/07/12 10:51:20;;;;;;;3.70;1.00;;;23.30;95.80;;;;;;5089775;28;20468;-45
2022/07/12 10:53:50;;;;;;;1.20;0.67;;;23.40;93.40;;;;;;5089835;28;20474;-48
2022/07/12 10:56:21;;;;;;;1.83;0.83;;;23.60;95.00;;;;;;5089957;28;20466;-46
2022/07/12 10:58:51;;;;;;;2.40;1.10;;;23.60;94.70;;;;;;5089851;28;20489;-47
2022/07/12 11:01:21;;;;;;;1.77;0.70;;;23.70;94.00;;;;;;5089663;28;20509;-47
2022/07/12 11:03:50;;;;;;;1.50;0.90;;;23.80;93.10;;;;;;5090223;28;20447;-46
2022/07/12 11:06:18;;;;;;;1.30;0.80;;;23.80;93.00;;;;;;5089952;28;20485;-47
2022/07/12 11:08:54;;;;;;;3.50;1.00;;;23.60;93.00;;;;;;5089830;28;20456;-54
2022/07/12 11:11:23;;;;;;;2.30;0.87;;;23.70;92.40;;;;;;5090155;28;21048;-46
2022/07/12 11:13:51;;;;;;;1.40;0.70;;;23.60;92.20;;;;;;5089911;28;20463;-47
2022/07/12 11:16:18;;;;;;;1.83;0.83;;;23.80;94.30;;;;;;5090087;28;20508;-46
2022/07/12 11:18:46;;;;;;;3.70;0.93;;;23.80;93.60;;;;;;5089651;28;20790;-46
2022/07/12 11:21:14;;;;;;;1.37;1.00;;;23.80;93.90;;;;;;5090084;28;20864;-47
2022/07/12 11:23:41;;;;;;;1.70;0.73;;;23.90;92.90;;;;;;5090002;28;20461;-45
2022/07/12 11:26:10;;;;;;;1.10;0.60;;;23.90;91.50;;;;;;5089692;28;20462;-47
2022/07/12 11:28:39;;;;;;;1.47;0.93;;;23.80;90.10;;;;;;5089620;28;20442;-48
2022/07/12 11:31:08;;;;;;;2.87;0.90;;;23.80;92.80;;;;;;5089712;28;20524;-46
2022/07/12 11:33:37;;;;;;;20.93;2.17;;;23.80;91.10;;;;;;5089849;28;20471;-45
2022/07/12 11:36:06;;;;;;;1.53;1.13;;;23.90;93.30;;;;;;5089748;28;20423;-47
2022/07/12 11:38:34;;;;;;;3.90;0.87;;;23.70;92.20;;;;;;5089737;28;20790;-47
2022/07/12 11:41:02;;;;;;;1.40;0.90;;;23.90;92.80;;;;;;5089282;28;20478;-47
2022/07/12 11:43:30;;;;;;;1.47;0.90;;;23.80;92.20;;;;;;5089633;28;20800;-46
2022/07/12 11:45:59;;;;;;;2.37;0.93;;;23.90;93.70;;;;;;5089542;28;20502;-46
2022/07/12 11:48:26;;;;;;;1.50;0.80;;;23.90;91.00;;;;;;5089694;28;20508;-46
2022/07/12 11:50:54;;;;;;;2.77;0.83;;;23.90;90.80;;;;;;5089310;28;20479;-46
2022/07/12 11:53:23;;;;;;;1.30;0.67;;;23.80;90.50;;;;;;5089985;28;20504;-45
2022/07/12 11:55:51;;;;;;;1.30;0.60;;;23.70;89.10;;;;;;5089501;28;20436;-47
2022/07/12 11:58:20;;;;;;;1.40;0.90;;;23.80;90.70;;;;;;5089685;28;20951;-45
2022/07/12 12:00:47;;;;;;;2.30;0.90;;;23.70;89.90;;;;;;5090554;28;20468;-46
2022/07/12 12:03:18;;;;;;;1.43;0.87;;;23.90;91.10;;;;;;5093427;28;20920;-46
2022/07/12 12:05:47;;;;;;;2.03;0.90;;;23.80;91.30;;;;;;5093465;28;20962;-50
2022/07/12 12:08:16;;;;;;;1.30;0.63;;;24.00;90.90;;;;;;5093439;28;20825;-44
2022/07/12 12:10:44;;;;;;;3.83;1.33;;;23.50;88.90;;;;;;5092896;28;20447;-46
2022/07/12 12:13:16;;;;;;;2.33;1.03;;;23.40;90.70;;;;;;5093225;28;20477;-45
2022/07/12 12:15:51;;;;;;;1.60;1.07;;;23.40;90.60;;;;;;5093302;28;21136;-45
2022/07/12 12:18:29;;;;;;;1.60;1.10;;;23.20;91.40;;;;;;5093158;28;20529;-47
2022/07/12 12:20:59;;;;;;;1.27;0.73;;;23.30;91.50;;;;;;5092994;28;20471;-45
2022/07/12 12:23:27;;;;;;;1.77;1.20;;;23.50;91.80;;;;;;5093452;28;20540;-45
2022/07/12 12:26:08;;;;;;;2.30;1.10;;;23.60;91.00;;;;;;5093055;28;20489;-46
2022/07/12 12:28:42;;;;;;;2.13;0.70;;;23.60;88.80;;;;;;5092783;28;20900;-47
2022/07/12 12:31:11;;;;;;;1.50;1.00;;;23.80;92.20;;;;;;5092726;28;20452;-50
2022/07/12 12:33:41;;;;;;;13.67;2.83;;;23.90;91.60;;;;;;5092744;28;20467;-45
2022/07/12 12:36:16;;;;;;;2.00;0.80;;;23.80;88.20;;;;;;5092873;28;20455;-46
2022/07/12 12:38:43;;;;;;;1.70;1.03;;;23.80;91.00;;;;;;5092659;28;20443;-46
2022/07/12 12:41:10;;;;;;;1.60;1.00;;;23.90;90.40;;;;;;5092571;28;20495;-45
2022/07/12 12:43:38;;;;;;;1.87;1.07;;;23.90;87.80;;;;;;5092843;28;20506;-45
2022/07/12 12:46:05;;;;;;;4.00;1.00;;;23.90;89.70;;;;;;5092574;28;20997;-45
2022/07/12 12:48:34;;;;;;;1.60;1.07;;;23.90;86.70;;;;;;5092429;28;20782;-46
2022/07/12 12:51:07;;;;;;;1.40;0.93;;;23.90;87.40;;;;;;5092298;28;20463;-46
2022/07/12 12:53:36;;;;;;;1.60;0.90;;;23.90;89.60;;;;;;5092386;28;20501;-48
2022/07/12 12:56:07;;;;;;;1.50;0.90;;;23.90;91.80;;;;;;5092453;28;20939;-45
2022/07/12 12:58:34;;;;;;;1.53;0.97;;;23.90;88.70;;;;;;5092411;28;20890;-45
2022/07/12 13:01:01;;;;;;;4.03;1.00;;;23.90;87.40;;;;;;5091973;28;20976;-47
2022/07/12 13:03:28;;;;;;;1.53;1.00;;;23.80;89.70;;;;;;5092411;28;20439;-45